Time;durP1;ratioP1;P1;durP2;ratioP2;P2;SDS_P1;SDS_P2;PMS_P1;PMS_P2;Temp;Humidity;BMP_temperature;BMP_pressure;BME280_temperature;BME280_humidity;BME280_pressure;Samples;Min_cycle;Max_cycle;Signal;HPM_P1;HPM_P2
2023/07/07 00:00:14;;;;;;;6.53;5.03;;;18.80;99.90;;;19.40;64.89;101761.28;5065243;28;20049;-71
2023/07/07 00:02:44;;;;;;;7.00;5.00;;;18.90;99.90;;;19.45;64.84;101757.56;5053260;28;20082;-71
2023/07/07 00:05:12;;;;;;;6.53;5.10;;;18.90;99.90;;;19.51;64.25;101761.91;5052818;28;20090;-70
2023/07/07 00:07:40;;;;;;;6.05;4.93;;;19.00;99.90;;;19.45;64.24;101762.06;5052737;28;20114;-71
2023/07/07 00:10:09;;;;;;;11.13;5.32;;;19.00;99.90;;;19.31;64.27;101762.41;5052729;28;20045;-71
2023/07/07 00:12:38;;;;;;;6.80;5.03;;;18.90;99.90;;;19.20;64.27;101763.59;5051951;28;20122;-71
2023/07/07 00:15:09;;;;;;;9.13;4.82;;;18.80;99.90;;;19.14;64.53;101755.69;5052888;28;20052;-71
2023/07/07 00:17:41;;;;;;;5.88;5.00;;;18.70;99.90;;;19.01;64.51;101763.16;5048870;28;20071;-71
2023/07/07 00:20:12;;;;;;;7.25;4.75;;;18.60;99.90;;;18.99;64.83;101758.78;5053188;28;20068;-71
2023/07/07 00:22:42;;;;;;;7.82;4.88;;;18.50;99.90;;;18.30;65.04;101648.72;5052618;28;20036;-71
2023/07/07 00:25:11;;;;;;;5.90;4.80;;;18.40;99.90;;;18.84;65.24;101758.22;5052485;28;20120;-71
2023/07/07 00:27:39;;;;;;;5.80;4.88;;;18.40;99.90;;;18.59;65.91;101753.47;5052444;28;20560;-71
2023/07/07 00:30:11;;;;;;;7.70;5.00;;;18.10;99.90;;;18.61;65.61;101748.94;5051324;28;20045;-71
2023/07/07 00:32:39;;;;;;;6.18;4.90;;;18.10;99.90;;;18.52;66.06;101752.75;5051426;28;20474;-71
2023/07/07 00:35:08;;;;;;;9.32;5.18;;;18.00;99.90;;;18.41;66.41;101754.72;5049069;28;20041;-70
2023/07/07 00:37:37;;;;;;;7.97;4.85;;;17.90;99.90;;;18.27;67.03;101754.16;5051321;28;20045;-71
2023/07/07 00:40:08;;;;;;;9.02;5.00;;;17.80;99.90;;;18.39;66.68;101751.19;5052528;28;20071;-69
2023/07/07 00:42:36;;;;;;;6.13;4.70;;;17.90;99.90;;;18.36;66.93;101745.03;5052286;28;20076;-70
2023/07/07 00:45:19;;;;;;;8.95;4.93;;;17.90;99.90;;;18.17;67.30;101739.22;5050264;28;20487;-70
2023/07/07 00:47:55;;;;;;;6.50;4.68;;;17.70;99.90;;;18.20;67.37;101733.78;5049308;28;20051;-71
2023/07/07 00:50:27;;;;;;;6.65;5.15;;;17.70;99.90;;;18.25;67.38;101739.94;5051128;28;20103;-71
2023/07/07 00:52:56;;;;;;;9.27;5.03;;;17.70;99.90;;;18.09;67.38;101745.63;5052632;28;20077;-71
2023/07/07 00:55:32;;;;;;;6.88;4.85;;;17.60;99.90;;;17.90;68.23;101739.78;5052517;28;20095;-71
2023/07/07 00:58:06;;;;;;;7.55;4.70;;;17.40;99.90;;;17.99;67.80;101739.59;5049618;28;20045;-70
2023/07/07 01:00:38;;;;;;;7.22;4.68;;;17.50;99.90;;;18.01;67.55;101740.44;5052419;28;20398;-70
2023/07/07 01:03:14;;;;;;;6.82;4.65;;;17.50;99.90;;;18.03;67.55;101722.53;5052454;28;20079;-70
2023/07/07 01:05:45;;;;;;;6.70;5.00;;;17.60;99.90;;;18.26;66.96;101730.97;5048636;28;20045;-70
2023/07/07 01:08:13;;;;;;;6.28;4.95;;;17.80;99.90;;;18.13;68.08;101733.94;5052388;28;20060;-69
2023/07/07 01:10:41;;;;;;;8.45;5.22;;;17.70;99.90;;;18.04;67.82;101737.69;5052002;28;20080;-70
2023/07/07 01:13:10;;;;;;;8.73;5.20;;;17.60;99.90;;;18.09;67.85;101734.91;5050834;28;20045;-70
2023/07/07 01:15:53;;;;;;;7.93;5.47;;;17.60;99.90;;;18.17;67.38;101731.19;5049835;28;20045;-70
2023/07/07 01:18:38;;;;;;;5.80;4.85;;;17.70;99.90;;;18.27;67.55;101729.19;5064257;28;20057;-71
2023/07/07 01:21:14;;;;;;;7.75;5.30;;;17.80;99.90;;;18.31;66.90;101726.38;5050922;28;20063;-70
2023/07/07 01:24:24;;;;;;;9.20;6.32;;;17.90;99.90;;;18.20;66.99;101723.06;5049981;28;20048;-71
2023/07/07 01:27:26;;;;;;;8.05;5.40;;;17.80;99.90;;;18.21;67.29;101719.47;5054631;28;20430;-71
2023/07/07 01:30:24;;;;;;;8.27;5.15;;;17.80;99.90;;;18.29;67.08;101722.00;5034682;28;20084;-71
2023/07/07 01:32:53;;;;;;;7.25;5.22;;;17.90;99.90;;;18.39;67.01;101727.09;5050612;28;20076;-71
2023/07/07 01:35:23;;;;;;;6.68;5.10;;;18.00;99.90;;;18.45;66.86;101723.41;5052256;28;20564;-71
2023/07/07 01:37:56;;;;;;;10.35;5.80;;;18.00;99.90;;;18.56;67.01;101726.75;5055515;28;20111;-71
2023/07/07 01:40:29;;;;;;;;;;;18.10;99.90;;;18.68;66.74;101715.72;5070113;28;20037;-71
2023/07/07 01:43:05;;;;;;;8.32;5.85;;;18.30;99.90;;;18.62;66.69;101715.88;5055482;28;19924;-71
2023/07/07 01:45:43;;;;;;;6.38;4.82;;;18.20;99.90;;;18.46;66.69;101715.38;5042816;28;20132;-71
2023/07/07 01:48:24;;;;;;;7.68;5.63;;;18.20;99.90;;;18.42;67.03;101720.78;5055189;28;20041;-70
2023/07/07 01:50:53;;;;;;;10.07;6.13;;;18.10;99.90;;;18.28;67.30;101718.41;5055513;28;20056;-69
2023/07/07 01:53:27;;;;;;;7.78;5.72;;;18.00;99.90;;;18.22;67.79;101715.88;5055498;28;20131;-70
2023/07/07 01:55:59;;;;;;;9.10;5.43;;;17.80;99.90;;;17.69;67.70;101622.47;5055131;28;20045;-71
2023/07/07 01:58:31;;;;;;;11.40;6.28;;;17.90;99.90;;;18.16;68.26;101718.69;5055253;28;20506;-70
2023/07/07 02:01:02;;;;;;;11.15;5.90;;;17.80;99.90;;;18.18;68.54;101714.16;5054109;28;20084;-70
2023/07/07 02:03:31;;;;;;;14.98;5.97;;;17.80;99.90;;;18.22;68.49;101729.25;5051657;28;20045;-70
2023/07/07 02:05:59;;;;;;;8.63;6.20;;;17.80;99.90;;;18.15;68.61;101710.69;5053600;28;20063;-71
2023/07/07 02:08:27;;;;;;;9.38;6.70;;;17.80;99.90;;;18.35;68.46;101721.84;5054844;28;20494;-71
2023/07/07 02:10:56;;;;;;;10.07;5.90;;;17.90;99.90;;;18.42;68.45;101719.03;5054785;28;20075;-71
2023/07/07 02:13:25;;;;;;;7.47;6.72;;;18.00;99.90;;;18.30;68.71;101696.94;5052002;28;20095;-70
2023/07/07 02:15:53;;;;;;;8.98;6.30;;;18.00;99.90;;;18.42;68.74;101710.06;5070519;28;20049;-71
2023/07/07 02:18:26;;;;;;;8.00;6.82;;;18.00;99.90;;;18.53;68.78;101705.34;5053637;28;20125;-71
2023/07/07 02:20:55;;;;;;;10.73;7.00;;;18.10;99.90;;;18.47;68.73;101711.75;5054932;28;20049;-71
2023/07/07 02:23:24;;;;;;;8.45;6.45;;;18.10;99.90;;;18.55;68.79;101715.13;5049708;28;20044;-71
2023/07/07 02:25:52;;;;;;;7.68;5.85;;;18.10;99.90;;;18.55;68.58;101712.47;5054534;28;20053;-70
2023/07/07 02:28:20;;;;;;;9.90;6.50;;;18.20;99.90;;;18.54;68.69;101713.34;5054517;28;20083;-71
2023/07/07 02:30:49;;;;;;;10.27;7.15;;;18.10;99.90;;;18.57;68.68;101712.41;5054744;28;20041;-71
2023/07/07 02:33:17;;;;;;;7.55;6.65;;;18.10;99.90;;;18.53;68.73;101702.69;5054338;28;20107;-70
2023/07/07 02:35:48;;;;;;;11.27;7.68;;;18.10;99.90;;;18.49;68.84;101711.72;5053808;28;20045;-71
2023/07/07 02:38:17;;;;;;;9.15;7.38;;;18.10;99.90;;;18.52;69.16;101717.91;5052406;28;20053;-70
2023/07/07 02:40:45;;;;;;;9.73;7.82;;;18.10;99.90;;;18.48;69.17;101724.25;5054538;28;20052;-71
2023/07/07 02:43:14;;;;;;;8.63;6.90;;;18.10;99.90;;;18.57;69.21;101721.34;5054218;28;20049;-71
2023/07/07 02:45:44;;;;;;;12.75;7.15;;;18.10;99.90;;;18.64;68.67;101719.41;5054552;28;20061;-70
2023/07/07 02:48:14;;;;;;;;;;;18.20;99.90;;;18.69;68.79;101718.38;5051457;28;20052;-68
2023/07/07 02:50:42;;;;;;;11.35;7.75;;;18.30;99.90;;;18.67;68.73;101720.22;5053027;28;19920;-71
2023/07/07 02:53:13;;;;;;;11.02;7.10;;;18.30;99.90;;;18.74;68.76;101724.50;5054301;28;20106;-71
2023/07/07 02:55:46;;;;;;;10.85;7.10;;;18.30;99.90;;;18.71;68.71;101721.00;5054423;28;20069;-71
2023/07/07 02:58:14;;;;;;;10.35;6.88;;;18.30;99.90;;;18.65;68.87;101722.06;5054587;28;20049;-70
2023/07/07 03:00:42;;;;;;;11.75;7.63;;;18.20;99.90;;;18.56;68.78;101722.25;5052893;28;20482;-71
2023/07/07 03:03:11;;;;;;;10.57;6.68;;;18.10;99.90;;;18.35;69.53;101732.56;5054072;28;20064;-70
2023/07/07 03:05:40;;;;;;;9.85;7.47;;;17.90;99.90;;;18.38;69.77;101727.13;5049002;28;20052;-69
2023/07/07 03:08:09;;;;;;;13.03;7.60;;;17.90;99.90;;;18.47;69.63;101729.63;5052701;28;20079;-71
2023/07/07 03:10:42;;;;;;;12.40;7.50;;;17.90;99.90;;;18.38;69.50;101714.63;5053902;28;20299;-72
2023/07/07 03:13:12;;;;;;;10.48;7.43;;;18.00;99.90;;;18.28;70.14;101737.16;5052483;28;20402;-70
2023/07/07 03:15:45;;;;;;;11.15;7.90;;;17.80;99.90;;;18.16;70.58;101737.44;5069113;28;20063;-70
2023/07/07 03:18:21;;;;;;;9.50;7.70;;;17.70;99.90;;;18.15;71.04;101726.75;5046750;28;20065;-70
2023/07/07 03:20:55;;;;;;;13.25;7.80;;;17.60;99.90;;;17.86;71.47;101705.97;5052631;28;20044;-71
2023/07/07 03:23:27;;;;;;;10.13;7.53;;;17.60;99.90;;;17.90;71.95;101727.25;5052547;28;20056;-70
2023/07/07 03:26:05;;;;;;;9.70;8.02;;;17.40;99.90;;;17.85;72.34;101725.59;5052204;28;20132;-71
2023/07/07 03:28:34;;;;;;;11.05;7.95;;;17.40;99.90;;;17.67;73.34;101728.66;5049624;28;20057;-71
2023/07/07 03:31:10;;;;;;;9.85;8.15;;;17.20;99.90;;;17.63;73.45;101724.28;5053244;28;20075;-71
2023/07/07 03:33:41;;;;;;;11.88;8.13;;;17.20;99.90;;;17.57;73.58;101698.53;5052068;28;20954;-71
2023/07/07 03:36:13;;;;;;;10.07;7.82;;;17.20;99.90;;;17.56;74.07;101720.81;5053553;28;20087;-71
2023/07/07 03:38:43;;;;;;;11.23;7.55;;;17.10;99.90;;;17.57;73.87;101700.31;5048568;28;20391;-71
2023/07/07 03:41:16;;;;;;;12.90;8.50;;;17.20;99.90;;;17.48;74.55;101725.44;5052135;28;20689;-71
2023/07/07 03:43:45;;;;;;;9.60;7.85;;;17.10;99.90;;;17.49;74.60;101720.97;5051851;28;20068;-71
2023/07/07 03:46:17;;;;;;;;;;;17.10;99.90;;;17.60;74.26;101729.69;5052511;28;20049;-71
2023/07/07 03:48:48;;;;;;;9.75;8.48;;;17.10;99.90;;;17.47;74.36;101725.44;5052016;28;19932;-72
2023/07/07 03:51:18;;;;;;;10.68;7.75;;;17.10;99.90;;;17.46;75.06;101727.22;5064503;28;20045;-72
2023/07/07 03:53:49;;;;;;;13.68;8.05;;;17.00;99.90;;;17.22;75.19;101716.09;5065285;28;20060;-72
2023/07/07 03:56:20;;;;;;;10.88;7.38;;;16.80;99.90;;;17.51;74.88;101719.16;5051962;28;20049;-70
2023/07/07 03:58:49;;;;;;;11.63;8.25;;;17.00;99.90;;;17.51;74.32;101722.72;5052910;28;20052;-70
2023/07/07 04:01:18;;;;;;;11.93;7.53;;;17.10;99.90;;;17.46;74.10;101729.03;5051827;28;20547;-70
2023/07/07 04:03:47;;;;;;;11.57;8.23;;;17.00;99.90;;;17.47;74.42;101729.00;5053075;28;20056;-70
2023/07/07 04:06:18;;;;;;;9.55;7.55;;;17.00;99.90;;;17.51;74.19;101729.88;5053114;28;20068;-70
2023/07/07 04:08:47;;;;;;;12.82;7.85;;;17.10;99.90;;;17.55;74.00;101731.56;5064724;28;20430;-69
2023/07/07 04:11:19;;;;;;;9.50;7.57;;;17.10;99.90;;;17.60;73.85;101743.94;5051709;28;20049;-69
2023/07/07 04:13:51;;;;;;;10.40;7.65;;;17.10;99.90;;;17.71;73.70;101738.41;5049356;28;20061;-70
2023/07/07 04:16:22;;;;;;;12.07;8.65;;;17.20;99.90;;;17.70;73.34;101733.94;5068243;28;20498;-70
2023/07/07 04:18:54;;;;;;;14.00;8.23;;;17.30;99.90;;;17.64;73.13;101740.31;5052861;28;20057;-69
2023/07/07 04:21:27;;;;;;;13.63;8.38;;;17.20;99.90;;;17.79;72.84;101736.41;5047610;28;20398;-70
2023/07/07 04:23:58;;;;;;;10.25;7.32;;;17.30;99.90;;;17.73;72.57;101736.56;5049863;28;20045;-71
2023/07/07 04:26:30;;;;;;;12.90;8.07;;;17.30;99.90;;;17.80;72.39;101727.50;5052866;28;20049;-68
2023/07/07 04:29:01;;;;;;;8.75;7.82;;;17.40;99.90;;;17.80;72.63;101732.84;5052527;28;20045;-70
2023/07/07 04:31:30;;;;;;;11.95;7.85;;;17.40;99.90;;;17.89;72.35;101730.88;5053011;28;20033;-71
2023/07/07 04:33:59;;;;;;;14.60;7.50;;;17.40;99.90;;;17.90;72.07;101734.44;5052617;28;20406;-70
2023/07/07 04:36:27;;;;;;;11.70;7.75;;;17.50;99.90;;;18.01;71.92;101735.09;5048573;28;20049;-70
2023/07/07 04:38:56;;;;;;;9.10;7.40;;;17.50;99.90;;;18.12;71.18;101730.38;5059931;28;20063;-71
2023/07/07 04:41:26;;;;;;;8.35;7.05;;;17.60;99.90;;;18.17;71.04;101739.22;5052301;28;20075;-71
2023/07/07 04:43:57;;;;;;;9.55;7.20;;;17.70;99.90;;;18.12;71.27;101732.19;5052877;28;20048;-70
2023/07/07 04:46:29;;;;;;;10.77;7.07;;;17.70;99.90;;;18.18;70.94;101727.56;5052327;28;20060;-70
2023/07/07 04:48:57;;;;;;;9.20;6.63;;;17.70;99.90;;;18.29;70.68;101730.88;5052206;28;20052;-70
2023/07/07 04:51:26;;;;;;;8.02;6.25;;;17.80;99.90;;;18.31;69.99;101729.06;5052193;28;20053;-70
2023/07/07 04:53:54;;;;;;;10.70;6.68;;;17.90;99.90;;;18.33;70.22;101724.53;5052458;28;20049;-70
2023/07/07 04:56:24;;;;;;;7.85;6.82;;;17.90;99.90;;;18.28;70.58;101730.91;5047289;28;20080;-70
2023/07/07 04:58:53;;;;;;;9.70;6.10;;;17.80;99.90;;;18.29;71.28;101733.56;5055207;28;20118;-69
2023/07/07 05:01:25;;;;;;;10.15;6.63;;;17.80;99.90;;;18.01;70.54;101690.47;5056139;28;20284;-70
2023/07/07 05:03:57;;;;;;;8.50;6.78;;;17.80;99.90;;;18.23;70.67;101740.88;5056188;28;20127;-70
2023/07/07 05:06:29;;;;;;;8.80;5.95;;;17.80;99.90;;;18.37;70.59;101741.44;5056123;28;20147;-70
2023/07/07 05:08:58;;;;;;;9.65;6.30;;;17.90;99.90;;;18.17;71.03;101724.94;5056054;28;20044;-70
2023/07/07 05:11:29;;;;;;;8.15;6.60;;;17.90;99.90;;;18.39;70.65;101748.50;5067790;28;20052;-68
2023/07/07 05:13:58;;;;;;;9.05;6.78;;;17.90;99.90;;;18.36;71.12;101753.97;5056086;28;20437;-71
2023/07/07 05:16:31;;;;;;;10.18;7.15;;;17.90;99.90;;;18.48;70.32;101751.03;5056189;28;20060;-68
2023/07/07 05:19:01;;;;;;;9.90;7.30;;;18.00;99.90;;;18.51;70.88;101761.69;5055933;28;20072;-70
2023/07/07 05:21:31;;;;;;;9.27;7.33;;;18.10;99.90;;;18.53;70.65;101759.84;5056075;28;20045;-71
2023/07/07 05:24:00;;;;;;;10.30;6.90;;;18.10;99.90;;;18.55;71.39;101758.00;5055848;28;20283;-71
2023/07/07 05:26:29;;;;;;;10.38;7.15;;;18.10;99.90;;;18.57;71.81;101753.50;5052125;28;20060;-71
2023/07/07 05:29:01;;;;;;;11.38;7.78;;;18.10;99.90;;;18.54;71.42;101760.75;5052258;28;20045;-71
2023/07/07 05:31:30;;;;;;;11.15;7.75;;;18.10;99.90;;;18.43;71.28;101717.22;5054231;28;20049;-71
2023/07/07 05:33:58;;;;;;;12.43;7.82;;;18.20;99.90;;;18.70;70.51;101754.09;5069702;28;20053;-70
2023/07/07 05:36:28;;;;;;;9.80;6.97;;;18.20;99.90;;;18.87;70.32;101759.94;5071050;28;20528;-73
2023/07/07 05:38:57;;;;;;;10.07;7.20;;;18.40;99.90;;;18.97;69.59;101763.28;5055411;28;20056;-72
2023/07/07 05:41:26;;;;;;;8.27;6.57;;;18.50;99.90;;;19.10;70.50;101765.63;5055367;28;20087;-72
2023/07/07 05:43:55;;;;;;;8.75;7.18;;;18.60;99.90;;;19.14;69.86;101764.63;5054286;28;20107;-69
2023/07/07 05:46:24;;;;;;;8.00;6.18;;;18.70;99.90;;;19.25;68.94;101767.03;5050460;28;20452;-71
2023/07/07 05:48:52;;;;;;;8.23;6.47;;;18.80;99.90;;;19.32;68.27;101773.97;5055262;28;20044;-71
2023/07/07 05:51:21;;;;;;;10.88;6.70;;;18.90;99.90;;;19.37;68.28;101770.31;5055477;28;20410;-71
2023/07/07 05:53:51;;;;;;;10.45;6.25;;;18.90;99.90;;;19.42;67.39;101770.19;5055357;28;20399;-71
2023/07/07 05:56:21;;;;;;;10.93;6.70;;;19.00;99.90;;;19.48;68.01;101776.28;5055380;28;20045;-71
2023/07/07 05:58:51;;;;;;;;;;;19.10;99.90;;;19.73;68.23;101771.13;5055645;28;20099;-70
2023/07/07 06:01:20;;;;;;;9.43;6.40;;;19.30;99.90;;;19.64;67.17;101772.28;5053989;28;19921;-70
2023/07/07 06:03:48;;;;;;;11.40;6.60;;;19.30;99.90;;;19.83;66.30;101772.63;5055193;28;20470;-70
2023/07/07 06:06:16;;;;;;;12.93;6.93;;;19.40;99.90;;;19.87;65.42;101771.63;5055246;28;20045;-69
2023/07/07 06:08:45;;;;;;;11.25;6.38;;;19.40;99.90;;;20.16;66.71;101777.03;5050540;28;20045;-70
2023/07/07 06:11:15;;;;;;;8.15;6.50;;;19.70;99.90;;;20.32;65.15;101767.66;5054349;28;20052;-70
2023/07/07 06:13:43;;;;;;;11.10;6.27;;;19.80;99.90;;;20.53;64.98;101776.84;5054595;28;20478;-69
2023/07/07 06:16:11;;;;;;;9.23;5.88;;;20.00;99.90;;;20.46;63.39;101783.34;5054708;28;20443;-70
2023/07/07 06:18:40;;;;;;;13.93;5.85;;;20.10;99.90;;;20.55;62.22;101785.75;5054877;28;20047;-70
2023/07/07 06:21:08;;;;;;;9.00;6.28;;;20.20;99.90;;;20.67;61.84;101786.22;5054877;28;20067;-70
2023/07/07 06:23:37;;;;;;;9.32;5.50;;;20.30;99.90;;;20.87;61.22;101795.47;5054617;28;20059;-70
2023/07/07 06:26:05;;;;;;;11.48;5.78;;;20.40;99.90;;;20.86;61.58;101793.72;5054794;28;20048;-70
2023/07/07 06:28:35;;;;;;;8.65;4.97;;;20.40;99.90;;;20.99;59.35;101787.03;5054547;28;20048;-69
2023/07/07 06:31:03;;;;;;;8.80;5.20;;;20.60;99.90;;;21.03;60.48;101791.41;5051091;28;20045;-68
2023/07/07 06:33:32;;;;;;;10.55;5.43;;;20.60;99.90;;;21.19;61.09;101789.97;5053307;28;20128;-70
2023/07/07 06:36:01;;;;;;;7.43;5.40;;;20.80;99.90;;;21.27;59.68;101796.00;5054669;28;20076;-64
2023/07/07 06:38:29;;;;;;;7.95;5.28;;;20.80;99.90;;;21.35;59.09;101802.00;5054352;28;20049;-67
2023/07/07 06:40:58;;;;;;;7.15;4.93;;;21.00;99.90;;;21.49;60.18;101795.19;5054336;28;20090;-69
2023/07/07 06:43:27;;;;;;;8.57;5.30;;;21.10;99.90;;;21.49;59.02;101810.47;5054173;28;20048;-68
2023/07/07 06:45:58;;;;;;;8.25;4.90;;;21.10;99.90;;;21.39;58.56;101814.41;5054211;28;20106;-66
2023/07/07 06:48:26;;;;;;;9.75;5.00;;;21.00;99.90;;;21.47;57.51;101812.31;5054248;28;20049;-66
2023/07/07 06:50:55;;;;;;;8.32;5.95;;;21.10;99.90;;;21.53;57.72;101801.34;5054414;28;20391;-67
2023/07/07 06:53:23;;;;;;;8.32;5.25;;;21.10;99.90;;;21.59;57.69;101811.91;5050148;28;20049;-67
2023/07/07 06:55:52;;;;;;;8.07;5.40;;;21.20;99.90;;;21.63;56.71;101807.28;5069648;28;20131;-70
2023/07/07 06:58:23;;;;;;;11.38;5.07;;;21.30;99.90;;;21.77;57.49;101805.00;5053955;28;20095;-71
2023/07/07 07:00:51;;;;;;;14.45;5.32;;;21.40;99.90;;;21.87;56.95;101814.56;5054319;28;20057;-69
2023/07/07 07:03:21;;;;;;;9.25;5.07;;;21.50;99.90;;;21.82;56.17;101809.31;5054174;28;20098;-70
2023/07/07 07:05:49;;;;;;;6.80;5.57;;;21.50;99.90;;;22.10;57.58;101812.78;5054174;28;20041;-69
2023/07/07 07:08:18;;;;;;;8.60;5.13;;;21.70;99.90;;;22.07;56.36;101809.31;5054045;28;20128;-67
2023/07/07 07:10:46;;;;;;;20.23;5.80;;;21.70;99.90;;;22.16;57.22;101822.47;5054030;28;20052;-66
2023/07/07 07:13:14;;;;;;;9.68;5.10;;;21.80;99.90;;;22.36;55.99;101817.19;5053584;28;20055;-67
2023/07/07 07:15:43;;;;;;;8.82;5.10;;;21.90;99.90;;;22.38;55.18;101831.50;5053896;28;20057;-68
2023/07/07 07:18:13;;;;;;;8.98;4.65;;;22.00;99.90;;;22.52;57.73;101826.47;5049912;28;20041;-67
2023/07/07 07:20:43;;;;;;;6.65;5.15;;;22.10;99.90;;;22.58;56.20;101817.28;5053497;28;20075;-68
2023/07/07 07:23:12;;;;;;;6.90;4.88;;;22.20;99.90;;;22.64;55.83;101823.34;5050752;28;20093;-66
2023/07/07 07:25:42;;;;;;;10.73;4.95;;;22.30;99.90;;;22.85;54.98;101813.50;5053459;28;20069;-67
2023/07/07 07:28:10;;;;;;;8.10;4.93;;;22.40;99.90;;;22.86;56.21;101824.22;5061010;28;20489;-66
2023/07/07 07:30:41;;;;;;;7.75;5.13;;;22.40;99.90;;;22.87;56.06;101795.44;5053367;28;20045;-66
2023/07/07 07:33:14;;;;;;;10.73;5.13;;;22.60;99.90;;;22.93;54.31;101831.16;5053349;28;20080;-68
2023/07/07 07:35:43;;;;;;;7.38;5.22;;;22.60;99.90;;;23.00;54.43;101831.78;5049810;28;20045;-69
2023/07/07 07:38:12;;;;;;;6.47;4.80;;;22.60;99.90;;;23.01;53.65;101829.03;5053796;28;20045;-67
2023/07/07 07:40:41;;;;;;;6.93;4.43;;;22.60;99.90;;;23.12;54.09;101842.09;5053118;28;20315;-69
2023/07/07 07:43:09;;;;;;;8.95;4.45;;;22.70;99.90;;;23.11;53.56;101829.53;5053031;28;20103;-69
2023/07/07 07:45:38;;;;;;;8.65;4.47;;;22.80;99.90;;;23.08;54.34;101825.13;5053201;28;20041;-68
2023/07/07 07:48:07;;;;;;;6.97;4.60;;;22.70;99.90;;;23.15;53.17;101840.13;5052984;28;20049;-69
2023/07/07 07:50:35;;;;;;;5.63;4.55;;;22.80;99.90;;;23.30;53.24;101834.13;5052896;28;20422;-69
2023/07/07 07:53:05;;;;;;;7.38;4.38;;;22.90;99.90;;;23.35;53.67;101824.97;5053189;28;20045;-69
2023/07/07 07:55:33;;;;;;;7.03;4.43;;;22.90;99.90;;;23.50;53.97;101832.44;5047984;28;20536;-67
2023/07/07 07:58:02;;;;;;;9.57;5.50;;;23.10;99.90;;;23.64;53.01;101839.00;5052834;28;20056;-68
2023/07/07 08:00:30;;;;;;;8.10;4.28;;;23.20;99.90;;;23.73;50.91;101838.59;5052731;28;20045;-67
2023/07/07 08:02:59;;;;;;;6.22;4.25;;;23.30;99.90;;;23.77;51.96;101842.06;5052746;28;20040;-67
2023/07/07 08:05:27;;;;;;;7.53;4.35;;;23.30;99.90;;;23.88;52.11;101845.16;5052629;28;20258;-69
2023/07/07 08:07:56;;;;;;;6.38;4.40;;;23.50;99.90;;;23.89;52.20;101836.97;5053075;28;20044;-70
2023/07/07 08:10:26;;;;;;;6.88;4.28;;;23.50;99.90;;;23.96;50.82;101840.31;5052594;28;20108;-68
2023/07/07 08:12:54;;;;;;;8.40;5.30;;;23.60;99.90;;;23.91;52.55;101840.50;5052592;28;20072;-68
2023/07/07 08:15:23;;;;;;;6.78;4.72;;;23.60;99.90;;;23.81;52.32;101849.09;5052186;28;20056;-68
2023/07/07 08:17:51;;;;;;;9.38;5.07;;;23.50;99.90;;;23.77;51.11;101856.44;5052452;28;20150;-68
2023/07/07 08:20:20;;;;;;;6.10;4.43;;;23.40;99.90;;;23.64;49.89;101857.03;5052446;28;20087;-68
2023/07/07 08:22:48;;;;;;;7.35;4.22;;;23.30;99.90;;;23.67;51.21;101852.41;5052718;28;20056;-69
2023/07/07 08:25:17;;;;;;;7.75;4.70;;;23.30;99.90;;;23.81;52.03;101849.94;5052616;28;20055;-69
2023/07/07 08:27:47;;;;;;;7.25;4.50;;;23.30;99.90;;;24.05;52.47;101843.50;5052713;28;20533;-69
2023/07/07 08:30:18;;;;;;;6.55;4.70;;;23.60;99.90;;;24.01;51.41;101852.66;5052641;28;20136;-68
2023/07/07 08:32:46;;;;;;;10.30;4.60;;;23.70;99.90;;;24.21;52.23;101856.34;5051638;28;20056;-69
2023/07/07 08:35:15;;;;;;;8.13;4.45;;;23.80;99.90;;;24.14;51.20;101858.44;5052274;28;20076;-70
2023/07/07 08:37:43;;;;;;;6.20;4.75;;;23.80;99.90;;;24.32;50.21;101848.63;5052793;28;20061;-69
2023/07/07 08:40:16;;;;;;;5.65;4.80;;;23.90;99.90;;;24.43;50.84;101858.00;5052510;28;20049;-68
2023/07/07 08:42:47;;;;;;;6.28;4.45;;;24.00;99.90;;;24.46;48.06;101868.69;5040122;28;20132;-70
2023/07/07 08:45:18;;;;;;;7.07;4.75;;;24.10;99.90;;;24.51;48.60;101846.81;5052289;28;20450;-70
2023/07/07 08:48:01;;;;;;;6.47;4.03;;;24.20;99.90;;;24.57;50.53;101851.94;5052529;28;20494;-68
2023/07/07 08:50:39;;;;;;;7.57;4.72;;;24.20;99.90;;;24.40;47.92;101846.44;5047680;28;20099;-69
2023/07/07 08:53:36;;;;;;;8.10;4.50;;;24.10;99.90;;;24.42;47.21;101852.66;5052197;28;20413;-69
2023/07/07 08:56:14;;;;;;;6.35;3.80;;;24.10;99.90;;;24.61;48.23;101840.91;5066425;28;20052;-69
2023/07/07 08:58:59;;;;;;;6.43;4.05;;;24.10;99.90;;;24.60;45.98;101846.41;5048493;28;20110;-68
2023/07/07 09:01:40;;;;;;;8.38;4.28;;;24.20;99.90;;;24.64;46.85;101831.78;5052436;28;20098;-69
2023/07/07 09:04:30;;;;;;;6.13;4.38;;;24.20;99.90;;;24.61;45.04;101838.22;5049044;28;20095;-69
2023/07/07 09:07:33;;;;;;;8.10;4.47;;;24.30;99.90;;;24.92;46.00;101834.94;5048564;28;20103;-69
2023/07/07 09:10:30;;;;;;;8.70;4.07;;;24.40;99.90;;;25.16;43.99;101847.31;5049585;28;20045;-68
2023/07/07 09:13:06;;;;;;;4.63;3.88;;;24.80;99.90;;;25.26;45.73;101847.72;5045891;28;20053;-69
2023/07/07 09:15:41;;;;;;;6.50;4.22;;;24.80;99.90;;;25.29;43.99;101845.75;5052362;28;20057;-71
2023/07/07 09:18:20;;;;;;;5.40;4.47;;;24.90;99.90;;;25.34;41.60;101850.94;5048569;28;20052;-70
2023/07/07 09:20:56;;;;;;;7.35;4.18;;;25.00;99.90;;;25.35;43.38;101848.16;5050956;28;20041;-70
2023/07/07 09:23:29;;;;;;;4.38;3.85;;;25.00;99.90;;;25.21;40.29;101866.91;5052226;28;20049;-69
2023/07/07 09:26:02;;;;;;;6.85;4.15;;;24.90;99.90;;;25.41;41.59;101863.25;5048616;28;20049;-70
2023/07/07 09:28:34;;;;;;;6.78;4.45;;;25.00;99.90;;;25.46;40.13;101848.50;5050906;28;20049;-69
2023/07/07 09:31:29;;;;;;;9.57;4.35;;;25.10;99.90;;;25.33;39.69;101852.75;5051875;28;20475;-70
2023/07/07 09:34:02;;;;;;;5.53;4.45;;;25.00;99.90;;;25.51;38.81;101853.72;5033552;28;20046;-70
2023/07/07 09:36:36;;;;;;;6.50;4.20;;;25.10;98.10;;;25.58;38.16;101850.59;5051738;28;20398;-69
2023/07/07 09:39:33;;;;;;;4.80;4.28;;;25.20;95.20;;;25.54;39.20;101842.69;5048638;28;20045;-70
2023/07/07 09:42:18;;;;;;;8.23;4.57;;;25.20;99.90;;;25.63;40.94;101834.97;5048699;28;20048;-69
2023/07/07 09:45:02;;;;;;;6.03;4.20;;;25.20;99.90;;;25.91;41.48;101838.03;5054744;28;20513;-69
2023/07/07 09:47:40;;;;;;;4.47;3.90;;;25.50;99.90;;;25.49;38.94;101845.63;5053874;28;20474;-71
2023/07/07 09:50:14;;;;;;;6.78;4.40;;;25.20;99.90;;;25.89;41.02;101864.34;5055205;28;20087;-70
2023/07/07 09:52:49;;;;;;;8.15;3.88;;;25.40;99.90;;;25.88;39.49;101857.16;5052224;28;20490;-70
2023/07/07 09:55:22;;;;;;;6.85;4.28;;;25.50;99.90;;;26.14;40.47;101846.78;5055135;28;20055;-69
2023/07/07 09:58:01;;;;;;;5.55;4.30;;;25.70;99.90;;;26.16;40.61;101845.75;5054013;28;20056;-69
2023/07/07 10:00:33;;;;;;;5.25;3.75;;;25.80;99.90;;;26.03;39.63;101835.59;5052304;28;20071;-70
2023/07/07 10:03:19;;;;;;;5.20;3.90;;;25.70;99.90;;;26.04;40.79;101842.78;5054007;28;20040;-69
2023/07/07 10:06:17;;;;;;;5.30;4.00;;;25.70;99.90;;;26.08;40.16;101864.28;5054336;28;20051;-70
2023/07/07 10:08:45;;;;;;;7.13;3.90;;;25.60;99.90;;;25.87;40.12;101841.84;5052188;28;20135;-69
2023/07/07 10:11:20;;;;;;;6.53;4.10;;;25.50;99.90;;;26.12;39.92;101846.88;5053752;28;20469;-69
2023/07/07 10:13:53;;;;;;;4.68;4.15;;;25.60;99.90;;;26.11;39.96;101830.69;5054950;28;20084;-69
2023/07/07 10:16:33;;;;;;;7.32;4.00;;;25.90;99.90;;;26.24;38.77;101848.94;5054986;28;20088;-69
2023/07/07 10:19:08;;;;;;;5.45;4.22;;;25.90;99.90;;;26.35;38.72;101851.06;5052811;28;20056;-70
2023/07/07 10:21:37;;;;;;;7.93;4.03;;;26.00;99.90;;;26.32;40.52;101843.09;5054657;28;20099;-69
2023/07/07 10:24:06;;;;;;;7.88;4.53;;;26.00;99.90;;;26.44;40.78;101845.16;5054531;28;20041;-68
2023/07/07 10:26:34;;;;;;;8.23;4.45;;;26.10;99.90;;;26.69;42.20;101842.84;5050833;28;20433;-69
2023/07/07 10:29:04;;;;;;;6.10;4.15;;;26.30;99.90;;;26.67;41.64;101840.19;5050815;28;20037;-70
2023/07/07 10:31:32;;;;;;;7.22;3.85;;;26.30;99.90;;;26.57;39.13;101857.97;5054295;28;20049;-70